createdAt,value
2019-01-19T00:00:19.553Z,7.63
2019-01-19T00:05:36.930Z,8.01
2019-01-19T00:10:58.305Z,8.28
2019-01-19T00:16:07.046Z,8.17
2019-01-19T00:21:24.176Z,8.03
2019-01-19T00:26:52.475Z,7.95
2019-01-19T00:32:09.210Z,7.81
2019-01-19T00:37:27.610Z,7.50
2019-01-19T00:42:46.523Z,7.31
2019-01-19T00:48:03.311Z,7.10
2019-01-19T00:53:11.754Z,7.11
2019-01-19T00:58:26.296Z,7.21
2019-01-19T01:03:36.165Z,7.32
2019-01-19T01:08:56.515Z,7.38
2019-01-19T01:14:17.251Z,7.53
2019-01-19T01:19:33.185Z,7.78
2019-01-19T01:24:50.176Z,8.06
2019-01-19T01:30:10.974Z,8.17
2019-01-19T01:35:32.908Z,7.91
2019-01-19T01:40:58.266Z,7.65
2019-01-19T01:46:14.262Z,7.65
2019-01-19T01:51:30.474Z,7.80
2019-01-19T01:56:33.211Z,8.01
2019-01-19T02:02:01.843Z,8.07
2019-01-19T02:07:16.822Z,8.11
2019-01-19T02:12:32.003Z,7.98
2019-01-19T02:17:51.215Z,7.85
2019-01-19T02:23:18.776Z,7.76
2019-01-19T02:28:35.352Z,7.78
2019-01-19T02:33:52.270Z,7.94
2019-01-19T02:39:07.342Z,7.76
2019-01-19T02:44:18.794Z,7.62
2019-01-19T02:49:38.423Z,7.60
2019-01-19T02:54:57.321Z,7.89
2019-01-19T03:00:27.397Z,7.89
2019-01-19T03:05:37.347Z,7.83
2019-01-19T03:11:09.547Z,7.78
2019-01-19T03:16:30.242Z,7.72
2019-01-19T03:21:51.329Z,7.80
2019-01-19T03:26:59.263Z,8.03
2019-01-19T03:32:16.950Z,8.12
2019-01-19T03:37:34.083Z,7.84
2019-01-19T03:42:51.777Z,7.58
2019-01-19T03:48:10.699Z,7.60
2019-01-19T03:53:32.443Z,7.59
2019-01-19T03:58:44.702Z,7.60
2019-01-19T04:04:00.020Z,7.55
2019-01-19T04:09:21.230Z,7.73
2019-01-19T04:14:39.369Z,7.73
2019-01-19T04:19:53.828Z,7.77
2019-01-19T04:25:07.272Z,7.86
2019-01-19T04:30:11.472Z,7.76
2019-01-19T04:35:14.028Z,7.58
2019-01-19T04:40:16.647Z,7.79
2019-01-19T04:45:19.212Z,7.83
2019-01-19T04:50:21.980Z,7.94
2019-01-19T04:55:25.574Z,7.91
2019-01-19T05:00:28.192Z,7.96
2019-01-19T05:05:30.859Z,8.12
2019-01-19T05:10:33.474Z,8.10
2019-01-19T05:15:36.030Z,8.14
2019-01-19T05:20:38.615Z,8.06
2019-01-19T05:25:41.162Z,8.05
2019-01-19T05:30:43.767Z,8.11
2019-01-19T05:35:46.382Z,7.99
2019-01-19T05:40:49.049Z,7.78
2019-01-19T05:45:51.607Z,7.72
2019-01-19T05:50:54.345Z,7.76
2019-01-19T05:55:57.942Z,7.85
2019-01-19T06:01:00.483Z,7.98
2019-01-19T06:06:03.927Z,7.95
2019-01-19T06:11:06.488Z,7.76
2019-01-19T06:16:09.133Z,7.86
2019-01-19T06:21:12.092Z,7.90
2019-01-19T06:26:14.653Z,7.91
2019-01-19T06:31:17.127Z,7.87
2019-01-19T06:36:19.808Z,7.82
2019-01-19T06:41:22.302Z,7.74
2019-01-19T06:46:24.872Z,7.84
2019-01-19T06:51:27.422Z,7.95
2019-01-19T06:56:30.957Z,7.94
2019-01-19T07:01:33.600Z,8.04
2019-01-19T07:06:36.163Z,8.04
2019-01-19T07:11:38.813Z,8.14
2019-01-19T07:16:41.392Z,8.08
2019-01-19T07:21:43.974Z,8.04
2019-01-19T07:26:46.562Z,7.95
2019-01-19T07:31:49.133Z,7.78
2019-01-19T07:36:51.691Z,7.60
2019-01-19T07:41:54.247Z,7.51
2019-01-19T07:46:58.025Z,7.50
2019-01-19T07:52:00.533Z,7.56
2019-01-19T07:57:04.047Z,7.61
2019-01-19T08:02:06.712Z,7.51
2019-01-19T08:07:09.452Z,7.49
2019-01-19T08:12:12.054Z,7.58
2019-01-19T08:17:14.749Z,7.81
2019-01-19T08:22:17.373Z,7.85
2019-01-19T08:27:20.041Z,7.68
2019-01-19T08:32:22.661Z,7.49
2019-01-19T08:37:25.417Z,7.39
2019-01-19T08:42:28.623Z,7.38
2019-01-19T08:47:31.254Z,7.62
2019-01-19T08:52:33.953Z,7.68
2019-01-19T08:57:36.723Z,7.66
2019-01-19T09:02:39.517Z,7.61
2019-01-19T09:07:42.127Z,8.00
2019-01-19T09:12:44.611Z,8.58
2019-01-19T09:17:47.142Z,9.00
2019-01-19T09:22:53.378Z,8.94
2019-01-19T09:27:56.051Z,9.16
2019-01-19T09:32:58.952Z,9.06
2019-01-19T09:38:01.702Z,9.32
2019-01-19T09:43:07.127Z,10.55
2019-01-19T09:48:10.107Z,12.15
2019-01-19T09:53:13.092Z,13.65
2019-01-19T09:58:16.572Z,11.17
2019-01-19T10:03:19.114Z,9.75
2019-01-19T10:08:21.647Z,9.05
2019-01-19T10:13:24.094Z,8.74
2019-01-19T10:18:26.954Z,8.65
2019-01-19T10:23:29.616Z,8.61
2019-01-19T10:28:32.406Z,8.83
2019-01-19T10:33:34.977Z,9.11
2019-01-19T10:38:37.622Z,8.61
2019-01-19T10:43:40.431Z,8.42
2019-01-19T10:48:42.957Z,8.42
2019-01-19T10:53:45.611Z,8.88
2019-01-19T10:58:49.000Z,9.45
2019-01-19T11:03:51.917Z,9.37
2019-01-19T11:08:54.392Z,9.33
2019-01-19T11:13:57.074Z,9.28
2019-01-19T11:18:59.642Z,9.37
2019-01-19T11:24:02.257Z,9.36
2019-01-19T11:29:04.942Z,9.72
2019-01-19T11:34:07.672Z,12.06
2019-01-19T11:39:10.163Z,11.78
2019-01-19T11:44:12.647Z,13.17
2019-01-19T11:49:15.131Z,13.83
2019-01-19T11:54:17.798Z,13.46
2019-01-19T11:59:21.387Z,12.13
2019-01-19T12:04:24.007Z,11.12
2019-01-19T12:09:26.681Z,10.16
2019-01-19T12:14:29.334Z,9.76
2019-01-19T12:19:32.046Z,10.01
2019-01-19T12:24:34.673Z,9.92
2019-01-19T12:29:37.362Z,9.83
2019-01-19T12:34:39.992Z,9.42
2019-01-19T12:39:42.578Z,9.23
2019-01-19T12:44:45.297Z,9.43
2019-01-19T12:49:47.973Z,9.75
2019-01-19T12:54:50.687Z,11.93
2019-01-19T12:59:54.181Z,12.41
2019-01-19T13:04:56.687Z,12.38
2019-01-19T13:10:08.038Z,11.06
2019-01-19T13:15:29.199Z,10.09
2019-01-19T13:20:47.423Z,9.81
2019-01-19T13:26:09.037Z,9.54
2019-01-19T13:31:30.343Z,9.84
2019-01-19T13:36:48.164Z,9.49
2019-01-19T13:42:05.481Z,9.24
2019-01-19T13:47:24.431Z,9.41
2019-01-19T13:52:39.936Z,9.57
2019-01-19T13:57:54.302Z,9.66
2019-01-19T14:03:10.278Z,9.64
2019-01-19T14:08:36.153Z,9.50
2019-01-19T14:14:07.463Z,9.03
2019-01-19T14:19:32.037Z,9.11
2019-01-19T14:24:45.961Z,9.39
2019-01-19T14:30:07.318Z,9.34
2019-01-19T14:35:21.483Z,10.32
2019-01-19T14:40:48.005Z,10.80
2019-01-19T14:46:19.326Z,10.46
2019-01-19T14:51:35.483Z,10.76
2019-01-19T14:56:47.717Z,10.61
2019-01-19T15:02:05.951Z,10.55
2019-01-19T15:07:29.707Z,11.00
2019-01-19T15:12:48.171Z,11.93
2019-01-19T15:18:16.658Z,11.56
2019-01-19T15:23:47.331Z,10.03
2019-01-19T15:29:07.048Z,9.58
2019-01-19T15:34:25.439Z,9.98
2019-01-19T15:39:36.976Z,9.79
2019-01-19T15:44:54.333Z,10.40
2019-01-19T15:50:12.129Z,10.85
2019-01-19T15:55:33.197Z,10.31
2019-01-19T16:00:47.721Z,9.64
2019-01-19T16:06:09.442Z,9.27
2019-01-19T16:11:23.091Z,9.29
2019-01-19T16:16:43.810Z,9.03
2019-01-19T16:22:05.092Z,8.66
2019-01-19T16:27:21.357Z,8.28
2019-01-19T16:32:41.622Z,7.93
2019-01-19T16:37:59.242Z,7.86
2019-01-19T16:43:20.254Z,7.88
2019-01-19T16:48:40.902Z,8.00
2019-01-19T16:53:55.962Z,7.81
2019-01-19T16:59:14.326Z,7.48
2019-01-19T17:04:45.327Z,7.36
2019-01-19T17:09:53.743Z,7.47
2019-01-19T17:15:12.870Z,7.50
2019-01-19T17:20:28.352Z,7.36
2019-01-19T17:25:47.231Z,7.18
2019-01-19T17:31:06.494Z,7.15
2019-01-19T17:36:34.632Z,7.43
2019-01-19T17:41:55.244Z,7.65
2019-01-19T17:47:07.592Z,7.57
2019-01-19T17:52:39.535Z,7.58
2019-01-19T17:58:00.152Z,7.44
2019-01-19T18:03:20.853Z,7.31
2019-01-19T18:08:49.566Z,7.43
2019-01-19T18:14:06.318Z,7.63
2019-01-19T18:19:19.194Z,7.71
2019-01-19T18:24:40.245Z,7.78
2019-01-19T18:30:01.374Z,8.03
2019-01-19T18:35:14.065Z,8.26
2019-01-19T18:40:29.053Z,8.40
2019-01-19T18:45:50.452Z,8.19
2019-01-19T18:51:06.933Z,8.08
2019-01-19T18:56:24.385Z,8.09
2019-01-19T19:01:37.792Z,8.11
2019-01-19T19:07:02.412Z,8.02
2019-01-19T19:12:19.732Z,7.95
2019-01-19T19:17:36.652Z,8.04
2019-01-19T19:23:07.389Z,7.92
2019-01-19T19:28:26.929Z,7.83
2019-01-19T19:33:43.953Z,7.93
2019-01-19T19:39:02.432Z,7.93
2019-01-19T19:44:18.986Z,7.81
2019-01-19T19:49:35.512Z,7.88
2019-01-19T19:54:38.291Z,7.67
2019-01-19T19:59:41.913Z,7.61
2019-01-19T20:04:44.531Z,7.82
2019-01-19T20:09:47.231Z,7.98
2019-01-19T20:14:50.016Z,8.11
2019-01-19T20:19:53.001Z,8.29
2019-01-19T20:24:55.772Z,8.17
2019-01-19T20:29:58.445Z,7.91
2019-01-19T20:35:01.229Z,7.89
2019-01-19T20:40:04.892Z,7.93
2019-01-19T20:45:09.114Z,8.00
2019-01-19T20:50:11.931Z,7.86
2019-01-19T20:55:14.632Z,7.95
2019-01-19T21:00:17.412Z,8.07
2019-01-19T21:05:20.115Z,8.25
2019-01-19T21:10:22.672Z,8.44
2019-01-19T21:15:25.291Z,8.46
2019-01-19T21:20:27.906Z,8.55
2019-01-19T21:25:30.765Z,8.62
2019-01-19T21:30:33.450Z,8.25
2019-01-19T21:35:36.037Z,8.20
2019-01-19T21:40:39.165Z,8.32
2019-01-19T21:45:41.927Z,8.30
2019-01-19T21:50:44.391Z,8.13
2019-01-19T21:55:46.922Z,8.00
2019-01-19T22:00:49.409Z,8.11
2019-01-19T22:05:51.954Z,8.01
2019-01-19T22:10:54.672Z,8.01
2019-01-19T22:15:57.234Z,7.93
2019-01-19T22:20:59.792Z,8.00
2019-01-19T22:26:02.352Z,8.00
2019-01-19T22:31:05.012Z,7.96
2019-01-19T22:36:07.557Z,8.23
2019-01-19T22:41:10.112Z,8.37
2019-01-19T22:46:12.637Z,8.22
2019-01-19T22:51:15.312Z,8.13
2019-01-19T22:56:17.932Z,8.17
2019-01-19T23:01:25.911Z,8.11
2019-01-19T23:06:28.532Z,7.99
2019-01-19T23:11:34.004Z,7.98
2019-01-19T23:16:35.731Z,7.85
2019-01-19T23:21:38.425Z,7.74
2019-01-19T23:26:41.411Z,7.74
2019-01-19T23:31:44.180Z,7.87
2019-01-19T23:36:46.912Z,8.02
2019-01-19T23:41:49.511Z,7.99
2019-01-19T23:46:52.052Z,8.05
2019-01-19T23:51:54.652Z,8.10
2019-01-19T23:56:57.272Z,8.35
